createdAt,value
2022-10-10T00:00:50.186Z,13.70
2022-10-10T00:03:18.211Z,13.71
2022-10-10T00:05:45.279Z,13.41
2022-10-10T00:08:12.070Z,13.08
2022-10-10T00:10:38.732Z,13.35
2022-10-10T00:13:06.288Z,13.38
2022-10-10T00:15:32.879Z,13.27
2022-10-10T00:17:59.462Z,13.20
2022-10-10T00:20:25.967Z,13.51
2022-10-10T00:22:52.838Z,12.89
2022-10-10T00:25:19.614Z,13.34
2022-10-10T00:27:46.488Z,13.27
2022-10-10T00:30:13.067Z,13.40
2022-10-10T00:32:39.572Z,12.98
2022-10-10T00:35:06.869Z,13.19
2022-10-10T00:37:33.364Z,12.93
2022-10-10T00:40:00.070Z,12.78
2022-10-10T00:42:26.634Z,13.13
2022-10-10T00:45:32.164Z,13.11
2022-10-10T00:48:08.727Z,13.24
2022-10-10T00:50:39.599Z,13.32
2022-10-10T00:53:07.079Z,13.03
2022-10-10T00:55:33.943Z,12.56
2022-10-10T00:58:00.646Z,12.87
2022-10-10T01:00:27.135Z,12.80
2022-10-10T01:02:54.050Z,12.44
2022-10-10T01:05:20.746Z,12.57
2022-10-10T01:07:47.323Z,12.36
2022-10-10T01:10:17.293Z,12.72
2022-10-10T01:13:18.845Z,12.87
2022-10-10T01:16:03.736Z,12.85
2022-10-10T01:18:40.210Z,12.91
2022-10-10T01:21:37.902Z,12.82
2022-10-10T01:24:26.262Z,12.94
2022-10-10T01:27:10.292Z,12.95
2022-10-10T01:29:45.911Z,12.86
2022-10-10T01:32:31.071Z,13.08
2022-10-10T01:35:08.932Z,12.92
2022-10-10T01:38:19.232Z,12.88
2022-10-10T01:40:50.745Z,12.57
2022-10-10T01:43:18.354Z,12.59
2022-10-10T01:45:49.683Z,12.71
2022-10-10T01:48:20.376Z,12.78
2022-10-10T01:50:59.947Z,12.67
2022-10-10T01:53:57.710Z,12.85
2022-10-10T01:56:34.224Z,12.67
2022-10-10T01:59:31.938Z,12.86
2022-10-10T02:02:36.146Z,12.87
2022-10-10T02:05:33.770Z,12.54
2022-10-10T02:08:04.714Z,12.76
2022-10-10T02:10:32.853Z,12.72
2022-10-10T02:13:02.070Z,12.58
2022-10-10T02:15:32.792Z,12.46
2022-10-10T02:18:00.499Z,12.62
2022-10-10T02:20:28.181Z,12.33
2022-10-10T02:22:56.309Z,12.15
2022-10-10T02:25:27.473Z,12.25
2022-10-10T02:28:02.824Z,11.99
2022-10-10T02:30:29.610Z,12.19
2022-10-10T02:33:01.286Z,11.90
2022-10-10T02:35:32.715Z,12.05
2022-10-10T02:38:00.318Z,11.77
2022-10-10T02:40:30.651Z,11.78
2022-10-10T02:43:00.066Z,11.64
2022-10-10T02:45:28.639Z,12.16
2022-10-10T02:47:55.305Z,12.24
2022-10-10T02:50:22.656Z,11.97
2022-10-10T02:52:49.499Z,11.76
2022-10-10T02:55:16.153Z,11.68
2022-10-10T02:57:42.887Z,11.85
2022-10-10T03:00:10.019Z,11.95
2022-10-10T03:02:36.915Z,12.03
2022-10-10T03:05:05.785Z,11.85
2022-10-10T03:07:32.648Z,11.51
2022-10-10T03:09:59.198Z,12.21
2022-10-10T03:12:25.794Z,11.60
2022-10-10T03:14:52.268Z,12.34
2022-10-10T03:17:18.747Z,12.05
2022-10-10T03:19:48.167Z,11.87
2022-10-10T03:22:14.693Z,11.96
2022-10-10T03:24:41.228Z,11.53
2022-10-10T03:27:07.814Z,11.52
2022-10-10T03:29:34.383Z,12.09
2022-10-10T03:32:01.003Z,11.78
2022-10-10T03:34:27.609Z,12.37
2022-10-10T03:36:54.317Z,12.50
2022-10-10T03:39:20.773Z,11.89
2022-10-10T03:41:50.406Z,12.02
2022-10-10T03:44:17.486Z,11.26
2022-10-10T03:46:44.070Z,11.65
2022-10-10T03:49:10.950Z,11.47
2022-10-10T03:51:37.516Z,11.22
2022-10-10T03:54:04.323Z,11.20
2022-10-10T03:56:30.880Z,11.17
2022-10-10T03:59:00.651Z,11.38
2022-10-10T04:01:27.868Z,10.82
2022-10-10T04:03:54.397Z,11.72
2022-10-10T04:06:20.924Z,11.15
2022-10-10T04:08:47.629Z,11.51
2022-10-10T04:11:14.478Z,11.64
2022-10-10T04:13:41.251Z,11.62
2022-10-10T04:16:07.723Z,11.69
2022-10-10T04:18:34.243Z,10.83
2022-10-10T04:21:05.067Z,10.68
2022-10-10T04:23:32.020Z,11.85
2022-10-10T04:25:58.631Z,12.01
2022-10-10T04:28:25.150Z,12.14
2022-10-10T04:30:51.988Z,11.70
2022-10-10T04:33:18.453Z,11.59
2022-10-10T04:35:47.842Z,12.21
2022-10-10T04:38:14.369Z,11.75
2022-10-10T04:40:40.886Z,12.20
2022-10-10T04:43:07.473Z,12.26
2022-10-10T04:45:37.330Z,11.44
2022-10-10T04:48:04.164Z,12.25
2022-10-10T04:50:30.782Z,11.73
2022-10-10T04:52:57.246Z,11.95
2022-10-10T04:55:23.971Z,11.93
2022-10-10T04:57:52.841Z,11.95
2022-10-10T05:00:19.569Z,11.60
2022-10-10T05:02:46.154Z,12.38
2022-10-10T05:05:12.606Z,12.05
2022-10-10T05:07:39.183Z,12.18
2022-10-10T05:10:06.937Z,12.41
2022-10-10T05:12:33.678Z,11.99
2022-10-10T05:15:00.183Z,11.74
2022-10-10T05:17:27.331Z,12.30
2022-10-10T05:19:53.805Z,12.57
2022-10-10T05:22:20.462Z,11.86
2022-10-10T05:24:47.013Z,12.05
2022-10-10T05:27:13.625Z,11.91
2022-10-10T05:29:40.153Z,11.42
2022-10-10T05:32:10.342Z,11.98
2022-10-10T05:34:38.242Z,12.05
2022-10-10T05:37:04.742Z,12.20
2022-10-10T05:39:31.414Z,12.38
2022-10-10T05:41:57.917Z,12.53
2022-10-10T05:44:24.641Z,12.31
2022-10-10T05:46:51.715Z,12.23
2022-10-10T05:49:20.403Z,11.81
2022-10-10T05:51:47.811Z,12.34
2022-10-10T05:54:14.320Z,12.08
2022-10-10T05:56:40.883Z,12.57
2022-10-10T05:59:08.511Z,12.35
2022-10-10T06:01:36.515Z,12.83
2022-10-10T06:04:03.178Z,12.52
2022-10-10T06:06:29.689Z,12.58
2022-10-10T06:08:57.598Z,13.13
2022-10-10T06:11:25.919Z,12.42
2022-10-10T06:13:54.309Z,13.14
2022-10-10T06:16:22.109Z,13.54
2022-10-10T06:18:48.629Z,13.79
2022-10-10T06:21:15.413Z,13.51
2022-10-10T06:23:42.433Z,13.79
2022-10-10T06:26:09.243Z,13.67
2022-10-10T06:28:36.012Z,13.72
2022-10-10T06:31:05.838Z,14.05
2022-10-10T06:33:32.961Z,13.75
2022-10-10T06:35:59.436Z,13.13
2022-10-10T06:38:27.609Z,13.83
2022-10-10T06:40:57.434Z,13.90
2022-10-10T06:43:26.495Z,13.33
2022-10-10T06:45:53.029Z,13.66
2022-10-10T06:48:19.834Z,13.97
2022-10-10T06:51:06.508Z,14.01
2022-10-10T06:53:33.419Z,14.45
2022-10-10T06:56:00.637Z,13.56
2022-10-10T06:58:28.801Z,13.68
2022-10-10T07:00:57.923Z,14.26
2022-10-10T07:03:24.586Z,13.93
2022-10-10T07:05:53.319Z,13.95
2022-10-10T07:08:20.687Z,13.78
2022-10-10T07:10:47.565Z,14.02
2022-10-10T07:13:14.569Z,14.62
2022-10-10T07:15:41.180Z,14.85
2022-10-10T07:18:07.683Z,15.28
2022-10-10T07:20:35.427Z,14.67
2022-10-10T07:23:02.602Z,15.28
2022-10-10T07:25:29.199Z,15.46
2022-10-10T07:27:56.930Z,16.01
2022-10-10T07:30:24.680Z,16.31
2022-10-10T07:32:55.441Z,16.69
2022-10-10T07:35:22.753Z,16.72
2022-10-10T07:37:53.692Z,17.04
2022-10-10T07:40:20.179Z,16.83
2022-10-10T07:42:46.759Z,15.88
2022-10-10T07:45:13.322Z,16.50
2022-10-10T07:47:40.571Z,16.61
2022-10-10T07:50:08.009Z,17.30
2022-10-10T07:52:35.460Z,17.41
2022-10-10T07:55:03.377Z,16.66
2022-10-10T07:57:34.749Z,16.82
2022-10-10T08:00:05.593Z,16.87
2022-10-10T08:02:32.106Z,17.19
2022-10-10T08:04:58.571Z,18.27
2022-10-10T08:07:25.280Z,18.20
2022-10-10T08:09:51.991Z,17.27
2022-10-10T08:12:18.979Z,17.59
2022-10-10T08:14:45.503Z,18.56
2022-10-10T08:17:12.031Z,18.57
2022-10-10T08:19:38.518Z,18.62
2022-10-10T08:22:05.137Z,18.27
2022-10-10T08:24:31.654Z,19.14
2022-10-10T08:26:58.144Z,18.95
2022-10-10T08:29:24.978Z,19.34
2022-10-10T08:31:51.557Z,18.57
2022-10-10T08:34:18.489Z,19.60
2022-10-10T08:36:44.975Z,20.23
2022-10-10T08:39:11.614Z,19.75
2022-10-10T08:41:57.960Z,19.23
2022-10-10T08:44:33.404Z,19.43
2022-10-10T08:47:04.249Z,19.19
2022-10-10T08:49:35.008Z,19.85
2022-10-10T08:52:08.541Z,19.81
2022-10-10T08:54:36.726Z,20.47
2022-10-10T08:57:05.734Z,20.50
2022-10-10T08:59:36.392Z,21.30
2022-10-10T09:02:43.693Z,21.78
2022-10-10T09:05:19.866Z,21.22
2022-10-10T09:07:55.826Z,21.60
2022-10-10T09:10:34.582Z,21.20
2022-10-10T09:13:25.655Z,21.86
2022-10-10T09:15:56.740Z,22.37
2022-10-10T09:18:42.282Z,23.16
2022-10-10T09:21:08.803Z,23.44
2022-10-10T09:23:41.191Z,23.39
2022-10-10T09:26:16.527Z,23.07
2022-10-10T09:28:55.528Z,23.54
2022-10-10T09:31:38.918Z,24.42
2022-10-10T09:34:13.167Z,27.13
2022-10-10T09:36:40.308Z,32.07
2022-10-10T09:39:22.140Z,32.54
2022-10-10T09:42:00.665Z,34.78
2022-10-10T09:44:27.853Z,34.18
2022-10-10T09:46:55.258Z,33.00
2022-10-10T09:49:21.903Z,34.43
2022-10-10T09:51:49.213Z,35.92
2022-10-10T09:54:18.582Z,38.68
2022-10-10T09:56:50.163Z,40.04
2022-10-10T09:59:55.563Z,40.42
2022-10-10T10:02:24.955Z,38.21
2022-10-10T10:04:55.288Z,41.10
2022-10-10T10:07:33.229Z,46.48
2022-10-10T10:10:02.155Z,42.27
2022-10-10T10:12:30.872Z,39.24
2022-10-10T10:15:00.869Z,36.50
2022-10-10T10:17:27.482Z,42.76
2022-10-10T10:19:54.005Z,43.22
2022-10-10T10:22:27.157Z,38.03
2022-10-10T10:24:54.229Z,39.11
2022-10-10T10:27:23.314Z,39.10
2022-10-10T10:29:58.112Z,39.69
2022-10-10T10:32:40.349Z,38.24
2022-10-10T10:35:09.776Z,37.00
2022-10-10T10:37:51.712Z,37.43
2022-10-10T10:40:38.456Z,35.32
2022-10-10T10:43:26.979Z,35.29
2022-10-10T10:46:24.818Z,33.45
2022-10-10T10:49:06.637Z,34.43
2022-10-10T10:51:42.286Z,34.33
2022-10-10T10:54:21.552Z,33.91
2022-10-10T10:56:56.433Z,32.03
2022-10-10T11:00:25.737Z,31.65
2022-10-10T11:02:55.391Z,30.66
2022-10-10T11:05:55.261Z,29.79
2022-10-10T11:08:36.933Z,31.81
2022-10-10T11:11:19.875Z,30.86
2022-10-10T11:13:55.547Z,32.49
2022-10-10T11:16:54.180Z,35.14
2022-10-10T11:19:34.191Z,35.23
2022-10-10T11:22:06.085Z,34.62
2022-10-10T11:24:54.033Z,36.82
2022-10-10T11:27:58.854Z,33.59
2022-10-10T11:30:26.758Z,36.18
2022-10-10T11:33:00.106Z,34.34
2022-10-10T11:35:50.569Z,34.55
2022-10-10T11:38:23.567Z,31.99
2022-10-10T11:40:54.196Z,28.95
2022-10-10T11:43:29.829Z,28.09
2022-10-10T11:46:03.463Z,27.44
2022-10-10T11:48:37.697Z,26.51
2022-10-10T11:51:16.401Z,26.36
2022-10-10T11:53:44.694Z,26.26
2022-10-10T11:56:46.737Z,27.48
2022-10-10T11:59:21.911Z,27.37
2022-10-10T12:01:52.443Z,25.60
2022-10-10T12:04:19.030Z,25.20
2022-10-10T12:06:52.895Z,24.84
2022-10-10T12:09:30.305Z,25.48
2022-10-10T12:12:00.641Z,23.88
2022-10-10T12:14:31.249Z,25.15
2022-10-10T12:16:58.553Z,23.73
2022-10-10T12:19:27.119Z,24.39
2022-10-10T12:21:56.726Z,23.87
2022-10-10T12:24:25.046Z,23.90
2022-10-10T12:26:54.478Z,23.78
2022-10-10T12:29:41.086Z,22.81
2022-10-10T12:32:13.733Z,23.37
2022-10-10T12:34:43.445Z,22.93
2022-10-10T12:37:31.670Z,23.77
2022-10-10T12:40:07.749Z,23.44
2022-10-10T12:42:38.246Z,22.65
2022-10-10T12:45:34.051Z,22.88
2022-10-10T12:48:06.748Z,22.97
2022-10-10T12:50:43.837Z,23.00
2022-10-10T12:53:18.495Z,23.05
2022-10-10T12:55:47.559Z,22.61
2022-10-10T12:58:26.141Z,22.19
2022-10-10T13:00:55.437Z,21.51
2022-10-10T13:03:36.695Z,23.03
2022-10-10T13:06:29.606Z,23.07
2022-10-10T13:08:56.596Z,22.62
2022-10-10T13:11:23.228Z,22.03
2022-10-10T13:13:52.503Z,22.48
2022-10-10T13:16:22.153Z,23.37
2022-10-10T13:18:49.783Z,23.22
2022-10-10T13:21:21.218Z,23.86
2022-10-10T13:26:44.226Z,22.70
2022-10-10T13:29:33.504Z,22.54
2022-10-10T13:32:03.255Z,22.97
2022-10-10T13:34:33.137Z,22.31
2022-10-10T13:37:01.942Z,23.27
2022-10-10T13:39:30.212Z,23.92
2022-10-10T13:41:57.293Z,23.29
2022-10-10T13:44:46.929Z,23.29
2022-10-10T13:47:38.327Z,23.87
2022-10-10T13:50:22.214Z,23.31
2022-10-10T13:52:48.732Z,23.38
2022-10-10T13:55:25.024Z,23.15
2022-10-10T13:57:55.385Z,21.96
2022-10-10T14:00:24.962Z,21.12
2022-10-10T14:02:51.911Z,22.04
2022-10-10T14:05:31.649Z,21.49
2022-10-10T14:07:58.457Z,22.36
2022-10-10T14:10:27.856Z,22.75
2022-10-10T14:12:58.742Z,23.03
2022-10-10T14:15:36.170Z,23.09
2022-10-10T14:18:05.974Z,22.41
2022-10-10T14:20:32.517Z,23.24
2022-10-10T14:23:01.490Z,23.62
2022-10-10T14:25:29.082Z,23.38
2022-10-10T14:27:55.540Z,23.65
2022-10-10T14:30:22.595Z,22.01
2022-10-10T14:32:49.163Z,21.47
2022-10-10T14:35:15.688Z,21.65
2022-10-10T14:37:42.210Z,21.70
2022-10-10T14:40:21.127Z,21.57
2022-10-10T14:42:48.429Z,21.17
2022-10-10T14:45:16.761Z,22.14
2022-10-10T14:47:43.493Z,22.03
2022-10-10T14:50:18.830Z,22.31
2022-10-10T14:52:45.436Z,22.21
2022-10-10T14:55:12.724Z,22.18
2022-10-10T14:57:39.401Z,21.95
2022-10-10T15:00:08.036Z,22.16
2022-10-10T15:02:35.007Z,22.74
2022-10-10T15:05:01.549Z,23.15
2022-10-10T15:07:28.446Z,23.84
2022-10-10T15:12:44.064Z,23.65
2022-10-10T15:15:12.215Z,22.78
2022-10-10T15:17:39.054Z,22.68
2022-10-10T15:20:07.660Z,22.19
2022-10-10T15:22:35.006Z,21.99
2022-10-10T15:25:01.671Z,21.43
2022-10-10T15:27:28.308Z,20.81
2022-10-10T15:29:55.196Z,21.98
2022-10-10T15:32:21.805Z,21.06
2022-10-10T15:34:49.139Z,21.28
2022-10-10T15:37:15.726Z,20.75
2022-10-10T15:39:44.622Z,21.39
2022-10-10T15:42:17.282Z,21.36
2022-10-10T15:44:48.159Z,21.10
2022-10-10T15:47:15.909Z,20.84
2022-10-10T15:49:42.523Z,21.21
2022-10-10T15:52:09.643Z,20.98
2022-10-10T15:54:36.395Z,20.90
2022-10-10T15:57:03.001Z,21.25
2022-10-10T15:59:30.180Z,20.70
2022-10-10T16:01:56.851Z,21.27
2022-10-10T16:04:23.614Z,21.27
2022-10-10T16:06:59.305Z,20.92
2022-10-10T16:09:35.348Z,20.29
2022-10-10T16:12:02.310Z,19.95
2022-10-10T16:14:29.003Z,19.23
2022-10-10T16:16:59.175Z,19.32
2022-10-10T16:19:25.665Z,19.61
2022-10-10T16:21:52.145Z,19.37
2022-10-10T16:24:18.894Z,19.39
2022-10-10T16:26:45.379Z,19.39
2022-10-10T16:29:12.491Z,19.98
2022-10-10T16:31:39.887Z,19.80
2022-10-10T16:34:07.356Z,20.10
2022-10-10T16:36:35.435Z,19.13
2022-10-10T16:39:01.958Z,19.94
2022-10-10T16:41:47.053Z,20.11
2022-10-10T16:44:15.132Z,19.38
2022-10-10T16:46:41.959Z,19.72
2022-10-10T16:49:09.888Z,19.40
2022-10-10T16:51:37.140Z,19.42
2022-10-10T16:54:05.299Z,19.54
2022-10-10T16:56:31.862Z,19.56
2022-10-10T16:58:59.556Z,18.99
2022-10-10T17:01:26.499Z,18.94
2022-10-10T17:03:53.130Z,19.16
2022-10-10T17:06:22.236Z,18.60
2022-10-10T17:08:50.844Z,18.88
2022-10-10T17:11:20.462Z,18.29
2022-10-10T17:13:47.680Z,18.16
2022-10-10T17:19:04.075Z,17.55
2022-10-10T17:21:31.512Z,17.57
2022-10-10T17:23:58.390Z,17.66
2022-10-10T17:26:26.247Z,17.20
2022-10-10T17:28:57.418Z,16.85
2022-10-10T17:31:25.216Z,16.87
2022-10-10T17:33:54.284Z,16.64
2022-10-10T17:36:24.282Z,17.39
2022-10-10T17:38:51.565Z,17.25
2022-10-10T17:41:19.196Z,17.30
2022-10-10T17:43:46.251Z,17.24
2022-10-10T17:46:33.828Z,16.32
2022-10-10T17:49:05.405Z,16.90
2022-10-10T17:51:32.346Z,16.84
2022-10-10T17:53:59.842Z,17.13
2022-10-10T17:56:26.465Z,17.01
2022-10-10T17:58:52.944Z,16.89
2022-10-10T18:01:20.124Z,16.31
2022-10-10T18:03:47.163Z,15.98
2022-10-10T18:06:17.167Z,16.70
2022-10-10T18:08:46.768Z,15.78
2022-10-10T18:11:14.663Z,16.13
2022-10-10T18:13:41.655Z,16.20
2022-10-10T18:16:13.468Z,16.11
2022-10-10T18:18:41.077Z,16.21
2022-10-10T18:21:09.306Z,15.82
2022-10-10T18:23:36.769Z,16.09
2022-10-10T18:26:10.276Z,16.61
2022-10-10T18:28:39.878Z,16.61
2022-10-10T18:31:13.545Z,16.44
2022-10-10T18:33:47.037Z,16.85
2022-10-10T18:36:16.893Z,16.71
2022-10-10T18:38:43.379Z,17.11
2022-10-10T18:41:18.703Z,17.25
2022-10-10T18:43:45.857Z,16.47
2022-10-10T18:46:14.559Z,16.81
2022-10-10T18:48:41.611Z,16.33
2022-10-10T18:51:12.750Z,16.44
2022-10-10T18:53:41.791Z,16.41
2022-10-10T18:56:09.274Z,15.92
2022-10-10T18:58:36.425Z,16.20
2022-10-10T19:01:08.781Z,16.02
2022-10-10T19:03:36.975Z,15.92
2022-10-10T19:06:05.722Z,15.92
2022-10-10T19:08:33.084Z,16.25
2022-10-10T19:11:00.758Z,15.54
2022-10-10T19:13:27.913Z,15.47
2022-10-10T19:15:54.449Z,15.82
2022-10-10T19:18:21.984Z,16.14
2022-10-10T19:20:48.718Z,15.93
2022-10-10T19:23:15.586Z,16.18
2022-10-10T19:25:43.831Z,16.21
2022-10-10T19:28:10.382Z,16.14
2022-10-10T19:30:42.412Z,15.93
2022-10-10T19:33:09.983Z,16.66
2022-10-10T19:35:41.847Z,16.53
2022-10-10T19:38:10.170Z,16.62
2022-10-10T19:40:43.527Z,16.71
2022-10-10T19:43:10.162Z,16.26
2022-10-10T19:45:41.659Z,16.41
2022-10-10T19:48:08.525Z,16.25
2022-10-10T19:50:39.058Z,16.56
2022-10-10T19:53:06.394Z,16.54
2022-10-10T19:55:33.354Z,16.33
2022-10-10T19:57:59.900Z,16.15
2022-10-10T20:00:26.484Z,15.72
2022-10-10T20:02:52.960Z,15.68
2022-10-10T20:05:20.461Z,15.93
2022-10-10T20:07:50.080Z,16.20
2022-10-10T20:10:17.660Z,16.03
2022-10-10T20:12:47.443Z,15.54
2022-10-10T20:15:14.028Z,16.26
2022-10-10T20:17:40.774Z,16.45
2022-10-10T20:20:07.758Z,16.12
2022-10-10T20:22:34.569Z,16.33
2022-10-10T20:25:01.315Z,15.48
2022-10-10T20:27:31.314Z,16.21
2022-10-10T20:29:58.666Z,16.39
2022-10-10T20:32:25.344Z,16.28
2022-10-10T20:34:52.067Z,16.13
2022-10-10T20:37:18.784Z,16.12
2022-10-10T20:39:45.268Z,16.18
2022-10-10T20:42:11.706Z,16.04
2022-10-10T20:44:38.297Z,15.83
2022-10-10T20:47:07.250Z,15.90
2022-10-10T20:49:33.929Z,15.66
2022-10-10T20:52:00.439Z,15.99
2022-10-10T20:54:26.996Z,15.69
2022-10-10T20:56:53.473Z,15.59
2022-10-10T20:59:21.347Z,15.87
2022-10-10T21:01:47.917Z,15.77
2022-10-10T21:04:14.813Z,15.29
2022-10-10T21:06:45.175Z,15.83
2022-10-10T21:09:13.641Z,15.82
2022-10-10T21:11:40.570Z,15.74
2022-10-10T21:14:07.334Z,15.33
2022-10-10T21:16:39.073Z,15.10
2022-10-10T21:19:09.019Z,14.80
2022-10-10T21:21:36.541Z,14.83
2022-10-10T21:24:05.333Z,15.23
2022-10-10T21:26:32.352Z,15.28
2022-10-10T21:28:59.166Z,14.99
2022-10-10T21:31:28.313Z,15.39
2022-10-10T21:33:55.526Z,14.41
2022-10-10T21:36:23.745Z,15.50
2022-10-10T21:38:50.372Z,15.09
2022-10-10T21:41:19.466Z,15.47
2022-10-10T21:43:48.125Z,15.53
2022-10-10T21:46:19.635Z,15.22
2022-10-10T21:48:46.219Z,15.04
2022-10-10T21:51:13.344Z,15.22
2022-10-10T21:53:40.113Z,15.18
2022-10-10T21:56:08.568Z,15.43
2022-10-10T21:58:37.518Z,15.04
2022-10-10T22:01:08.388Z,15.35
2022-10-10T22:03:34.970Z,15.36
2022-10-10T22:06:06.306Z,15.44
2022-10-10T22:08:33.361Z,15.26
2022-10-10T22:11:04.347Z,14.95
2022-10-10T22:13:30.881Z,15.48
2022-10-10T22:15:57.674Z,15.30
2022-10-10T22:18:24.851Z,15.22
2022-10-10T22:20:51.860Z,15.44
2022-10-10T22:23:20.237Z,15.40
2022-10-10T22:25:48.674Z,15.37
2022-10-10T22:28:16.221Z,14.94
2022-10-10T22:30:43.142Z,15.20
2022-10-10T22:33:09.690Z,15.22
2022-10-10T22:35:36.852Z,15.26
2022-10-10T22:38:04.129Z,15.21
2022-10-10T22:40:30.660Z,15.03
2022-10-10T22:42:57.665Z,15.10
2022-10-10T22:45:24.402Z,14.93
2022-10-10T22:47:51.735Z,15.01
2022-10-10T22:50:18.462Z,15.09
2022-10-10T22:52:45.112Z,14.65
2022-10-10T22:55:17.233Z,15.14
2022-10-10T22:57:44.965Z,14.81
2022-10-10T23:00:12.325Z,15.04
2022-10-10T23:02:38.827Z,14.66
2022-10-10T23:05:06.138Z,14.57
2022-10-10T23:07:32.990Z,14.94
2022-10-10T23:09:59.499Z,14.70
2022-10-10T23:12:26.106Z,14.77
2022-10-10T23:14:52.582Z,14.90
2022-10-10T23:17:19.102Z,14.80
2022-10-10T23:19:45.566Z,14.82
2022-10-10T23:22:15.144Z,15.19
2022-10-10T23:24:41.877Z,15.07
2022-10-10T23:27:08.362Z,15.27
2022-10-10T23:29:35.308Z,14.77
2022-10-10T23:32:02.018Z,14.66
2022-10-10T23:34:28.527Z,14.91
2022-10-10T23:36:55.072Z,14.64
2022-10-10T23:39:21.543Z,15.04
2022-10-10T23:41:48.070Z,15.00
2022-10-10T23:44:14.559Z,14.95
2022-10-10T23:46:41.201Z,14.81
2022-10-10T23:49:07.699Z,14.54
2022-10-10T23:51:34.187Z,14.50
2022-10-10T23:54:00.715Z,14.59
2022-10-10T23:56:27.219Z,14.64
2022-10-10T23:58:53.871Z,14.95
